Time;durP1;ratioP1;P1;durP2;ratioP2;P2;SDS_P1;SDS_P2;PMS_P1;PMS_P2;Temp;Humidity;BMP_temperature;BMP_pressure;BME280_temperature;BME280_humidity;BME280_pressure;Samples;Min_cycle;Max_cycle;Signal;HPM_P1;HPM_P2
2022/08/21 00:00:38;;;;;;;4.05;1.60;;;;;;;;;;5027857;28;20044;-89
2022/08/21 00:03:06;;;;;;;6.43;1.60;;;;;;;;;;5015074;28;20038;-89
2022/08/21 00:05:40;;;;;;;2.20;1.38;;;;;;;;;;5016157;28;20030;-89
2022/08/21 00:08:06;;;;;;;5.90;1.55;;;;;;;;;;5015520;28;20124;-89
2022/08/21 00:10:32;;;;;;;3.55;1.45;;;;;;;;;;5015094;28;20116;-90
2022/08/21 00:13:01;;;;;;;1.98;1.13;;;;;;;;;;5006976;28;20521;-88
2022/08/21 00:15:34;;;;;;;3.22;1.30;;;;;;;;;;5013519;28;20033;-89
2022/08/21 00:18:00;;;;;;;4.18;1.67;;;;;;;;;;5008064;28;20491;-89
2022/08/21 00:20:29;;;;;;;6.15;1.52;;;;;;;;;;5007207;28;20092;-90
2022/08/21 00:23:00;;;;;;;4.25;1.52;;;;;;;;;;5014643;28;20052;-89
2022/08/21 00:25:26;;;;;;;3.58;1.52;;;;;;;;;;5017534;28;20494;-90
2022/08/21 02:44:38;;;;;;;4.05;1.38;;;;;;;;;;4993763;28;20085;-91
2022/08/21 02:47:04;;;;;;;4.38;1.95;;;;;;;;;;5004939;28;20054;-91
2022/08/21 02:49:30;;;;;;;2.30;1.33;;;;;;;;;;4990797;28;20109;-91
2022/08/21 02:51:55;;;;;;;6.55;1.90;;;;;;;;;;5008609;28;20034;-90
2022/08/21 02:54:20;;;;;;;3.58;1.58;;;;;;;;;;5015245;28;20037;-90
2022/08/21 02:56:46;;;;;;;4.18;1.75;;;;;;;;;;4993942;28;20475;-90
2022/08/21 02:59:11;;;;;;;3.58;1.58;;;;;;;;;;4993086;28;20049;-90
2022/08/21 03:01:37;;;;;;;3.78;1.50;;;;;;;;;;4992445;28;20030;-90
2022/08/21 03:04:03;;;;;;;2.78;1.70;;;;;;;;;;4990734;28;20041;-90
2022/08/21 03:06:29;;;;;;;5.63;1.40;;;;;;;;;;4992048;28;20037;-90
2022/08/21 03:08:54;;;;;;;2.88;1.70;;;;;;;;;;4991388;28;20034;-91
2022/08/21 03:11:20;;;;;;;3.88;2.13;;;;;;;;;;5008353;28;20500;-90
2022/08/21 03:13:46;;;;;;;4.45;1.77;;;;;;;;;;5008515;28;20468;-90
2022/08/21 03:16:11;;;;;;;4.15;1.60;;;;;;;;;;5008352;28;20119;-90
2022/08/21 03:18:37;;;;;;;6.72;1.85;;;;;;;;;;5004495;28;20037;-90
2022/08/21 03:21:04;;;;;;;6.20;1.88;;;;;;;;;;5010972;28;20042;-90
2022/08/21 03:23:30;;;;;;;3.05;1.55;;;;;;;;;;4991869;28;20022;-89
2022/08/21 03:25:56;;;;;;;4.47;1.98;;;;;;;;;;5006027;28;20064;-89
2022/08/21 03:28:21;;;;;;;10.55;1.70;;;;;;;;;;5006778;28;20104;-90
2022/08/21 03:30:49;;;;;;;3.40;1.70;;;;;;;;;;4991391;28;20115;-89
2022/08/21 03:33:15;;;;;;;3.55;1.88;;;;;;;;;;4990720;28;20041;-90
2022/08/21 03:35:46;;;;;;;3.42;1.60;;;;;;;;;;4995785;28;20133;-90
2022/08/21 03:38:15;;;;;;;4.43;1.60;;;;;;;;;;5019289;28;20030;-89
2022/08/21 03:40:42;;;;;;;5.13;1.42;;;;;;;;;;5008001;28;20018;-89
2022/08/21 03:43:09;;;;;;;3.40;1.60;;;;;;;;;;4995364;28;20058;-90
2022/08/21 03:45:34;;;;;;;4.47;1.45;;;;;;;;;;4991576;28;20534;-90
2022/08/21 03:48:02;;;;;;;3.92;1.30;;;;;;;;;;5004136;28;20037;-90
2022/08/21 03:50:34;;;;;;;5.30;1.85;;;;;;;;;;5009583;28;20068;-90
2022/08/21 03:52:59;;;;;;;3.75;1.45;;;;;;;;;;5028163;28;20164;-90
2022/08/21 03:55:25;;;;;;;2.15;1.60;;;;;;;;;;5019200;28;20125;-90
2022/08/21 03:57:51;;;;;;;3.55;1.98;;;;;;;;;;5009101;28;20404;-89
2022/08/21 04:00:18;;;;;;;3.97;1.67;;;;;;;;;;4991333;28;20034;-90
2022/08/21 04:02:44;;;;;;;5.93;1.88;;;;;;;;;;5008681;28;20079;-90
2022/08/21 04:05:12;;;;;;;3.75;1.70;;;;;;;;;;5010169;28;20026;-90
2022/08/21 04:07:37;;;;;;;3.05;1.75;;;;;;;;;;5008509;28;20125;-90
2022/08/21 04:10:06;;;;;;;2.15;1.60;;;;;;;;;;5010891;28;20485;-90
2022/08/21 04:12:31;;;;;;;5.90;1.80;;;;;;;;;;5010874;28;20073;-90
2022/08/21 04:14:57;;;;;;;2.67;1.52;;;;;;;;;;5010927;28;20042;-90
2022/08/21 04:17:22;;;;;;;4.30;1.80;;;;;;;;;;5010375;28;20038;-90
2022/08/21 04:19:48;;;;;;;2.95;1.70;;;;;;;;;;5025559;28;20029;-90
2022/08/21 04:22:15;;;;;;;4.95;1.50;;;;;;;;;;5012501;28;20029;-89
2022/08/21 04:24:41;;;;;;;6.50;1.98;;;;;;;;;;5010591;28;20053;-89
2022/08/21 04:27:06;;;;;;;5.57;2.08;;;;;;;;;;5008817;28;20411;-89
2022/08/21 04:29:31;;;;;;;4.75;1.92;;;;;;;;;;5010166;28;20034;-89
2022/08/21 04:31:57;;;;;;;3.28;1.80;;;;;;;;;;5010836;28;20087;-89
2022/08/21 04:34:22;;;;;;;2.75;1.55;;;;;;;;;;5012878;28;20097;-88
2022/08/21 04:36:48;;;;;;;4.03;1.85;;;;;;;;;;5034915;28;20044;-88
2022/08/21 04:39:13;;;;;;;2.83;1.75;;;;;;;;;;5015469;28;20415;-89
2022/08/21 04:41:39;;;;;;;8.85;1.73;;;;;;;;;;4997910;28;20112;-88
2022/08/21 04:44:04;;;;;;;3.13;1.70;;;;;;;;;;5014076;28;20072;-89
2022/08/21 04:46:30;;;;;;;6.68;1.98;;;;;;;;;;5033274;28;20014;-89
2022/08/21 04:48:55;;;;;;;4.47;1.95;;;;;;;;;;5014584;28;20030;-88
2022/08/21 04:51:33;;;;;;;3.10;2.00;;;;;;;;;;5019458;28;20096;-89
2022/08/21 04:54:08;;;;;;;4.35;1.65;;;;;;;;;;5018573;28;20136;-90
2022/08/21 04:56:43;;;;;;;5.63;2.25;;;;;;;;;;5014164;28;20081;-89
2022/08/21 04:59:26;;;;;;;7.60;2.08;;;;;;;;;;5013853;28;20121;-89
2022/08/21 05:01:53;;;;;;;8.02;2.00;;;;;;;;;;5009359;28;20018;-89
2022/08/21 05:04:23;;;;;;;3.83;1.65;;;;;;;;;;4994646;28;20033;-88
2022/08/21 05:06:50;;;;;;;7.32;2.25;;;;;;;;;;4993378;28;20440;-89
2022/08/21 05:09:23;;;;;;;6.28;2.40;;;;;;;;;;4994183;28;20041;-89
2022/08/21 05:11:48;;;;;;;4.05;1.88;;;;;;;;;;5001995;28;20041;-90
2022/08/21 05:14:14;;;;;;;8.05;2.10;;;;;;;;;;5011301;28;20038;-91
2022/08/21 05:16:41;;;;;;;3.03;1.77;;;;;;;;;;5013561;28;20061;-91
2022/08/21 05:19:07;;;;;;;4.97;2.03;;;;;;;;;;5014480;28;20069;-90
2022/08/21 05:21:35;;;;;;;5.10;1.80;;;;;;;;;;5013591;28;20100;-91
2022/08/21 05:24:00;;;;;;;7.63;2.00;;;;;;;;;;5012734;28;20034;-91
2022/08/21 05:26:26;;;;;;;6.30;2.05;;;;;;;;;;5013537;28;20155;-91
2022/08/21 05:28:51;;;;;;;5.30;1.88;;;;;;;;;;5011705;28;20034;-91
2022/08/21 05:31:17;;;;;;;6.40;2.20;;;;;;;;;;5014312;28;20025;-90
2022/08/21 05:33:43;;;;;;;3.53;1.92;;;;;;;;;;5014753;28;20030;-90
2022/08/21 05:36:11;;;;;;;4.05;1.95;;;;;;;;;;5019232;28;20423;-91
2022/08/21 05:38:36;;;;;;;4.38;1.70;;;;;;;;;;5013514;28;20079;-91
2022/08/21 06:02:47;;;;;;;6.30;2.17;;;;;;;;;;5019629;28;20083;-85
2022/08/21 06:05:12;;;;;;;8.85;1.98;;;;;;;;;;5027938;28;20038;-85
2022/08/21 06:07:38;;;;;;;3.58;2.03;;;;;;;;;;5028692;28;20031;-85
2022/08/21 06:10:03;;;;;;;5.90;2.30;;;;;;;;;;5029343;28;20453;-84
2022/08/21 06:12:29;;;;;;;5.40;1.85;;;;;;;;;;5012659;28;20533;-86
2022/08/21 06:14:54;;;;;;;5.68;1.85;;;;;;;;;;5016599;28;20124;-84
2022/08/21 06:17:19;;;;;;;4.18;2.05;;;;;;;;;;5019555;28;20048;-83
2022/08/21 06:19:45;;;;;;;5.45;2.10;;;;;;;;;;5021394;28;20025;-84
2022/08/21 06:22:10;;;;;;;7.80;2.45;;;;;;;;;;5025407;28;20037;-84
2022/08/21 06:24:36;;;;;;;4.10;2.08;;;;;;;;;;5027149;28;20029;-84
2022/08/21 06:27:07;;;;;;;3.72;2.03;;;;;;;;;;5027828;28;20034;-85
2022/08/21 06:29:34;;;;;;;7.00;2.20;;;;;;;;;;5009969;28;20053;-85
2022/08/21 06:32:00;;;;;;;2.95;1.90;;;;;;;;;;5009800;28;20657;-84
2022/08/21 06:34:25;;;;;;;4.85;2.25;;;;;;;;;;5005825;28;20120;-84
2022/08/21 06:36:51;;;;;;;6.95;2.38;;;;;;;;;;5006173;28;20116;-83
2022/08/21 06:39:16;;;;;;;7.97;2.20;;;;;;;;;;5029751;28;20095;-85
2022/08/21 06:41:41;;;;;;;4.95;2.17;;;;;;;;;;5009044;28;20428;-85
2022/08/21 06:44:07;;;;;;;5.65;2.22;;;;;;;;;;5009939;28;20059;-84
2022/08/21 06:46:33;;;;;;;7.20;2.58;;;;;;;;;;5020692;28;20057;-84
2022/08/21 06:48:59;;;;;;;7.72;1.90;;;;;;;;;;5038816;28;20087;-84
2022/08/21 06:51:27;;;;;;;9.85;3.25;;;;;;;;;;5018171;28;20601;-85
2022/08/21 06:53:53;;;;;;;4.78;2.30;;;;;;;;;;5026720;28;20042;-84
2022/08/21 06:56:19;;;;;;;4.63;2.25;;;;;;;;;;5044971;28;20033;-84
2022/08/21 06:58:45;;;;;;;4.55;2.33;;;;;;;;;;5038212;28;20021;-84
2022/08/21 07:01:10;;;;;;;6.97;2.28;;;;;;;;;;5042637;28;20108;-84
2022/08/21 07:03:39;;;;;;;6.35;1.80;;;;;;;;;;5035758;28;20136;-84
2022/08/21 07:06:06;;;;;;;7.72;2.30;;;;;;;;;;5013580;28;20033;-84
2022/08/21 07:08:31;;;;;;;3.78;2.05;;;;;;;;;;5024678;28;20038;-85
2022/08/21 07:10:59;;;;;;;7.72;2.25;;;;;;;;;;5020449;28;20069;-85
2022/08/21 07:13:25;;;;;;;6.97;2.22;;;;;;;;;;5010328;28;20036;-85
2022/08/21 07:15:51;;;;;;;4.20;2.10;;;;;;;;;;5024563;28;20069;-84
2022/08/21 07:18:16;;;;;;;4.82;1.77;;;;;;;;;;5006062;28;20057;-84
2022/08/21 07:20:42;;;;;;;4.32;2.17;;;;;;;;;;4997629;28;20066;-85
2022/08/21 07:23:36;;;;;;;6.22;2.00;;;;;;;;;;5006566;28;20064;-85
2022/08/21 07:26:03;;;;;;;8.15;2.03;;;;;;;;;;5001461;28;20044;-85
2022/08/21 07:28:29;;;;;;;4.22;1.92;;;;;;;;;;5008493;28;20026;-85
2022/08/21 07:30:56;;;;;;;5.75;1.67;;;;;;;;;;5022325;28;20986;-85
2022/08/21 07:33:23;;;;;;;6.13;1.60;;;;;;;;;;5005465;28;20124;-84
2022/08/21 07:35:49;;;;;;;6.05;1.63;;;;;;;;;;5006896;28;20041;-84
2022/08/21 07:38:14;;;;;;;5.53;1.27;;;;;;;;;;5018829;28;20034;-84
2022/08/21 07:40:39;;;;;;;4.00;1.60;;;;;;;;;;5003876;28;20037;-84
2022/08/21 07:43:05;;;;;;;3.75;1.20;;;;;;;;;;5022751;28;20033;-85
2022/08/21 07:45:31;;;;;;;4.78;1.80;;;;;;;;;;5000652;28;20120;-84
2022/08/21 07:47:56;;;;;;;2.63;2.10;;;;;;;;;;5023440;28;20037;-84
2022/08/21 07:50:22;;;;;;;6.03;1.52;;;;;;;;;;5004358;28;20041;-84
2022/08/21 07:52:47;;;;;;;6.03;1.70;;;;;;;;;;5006671;28;20028;-84
2022/08/21 07:55:17;;;;;;;6.25;1.40;;;;;;;;;;5005462;28;20113;-84
2022/08/21 07:57:42;;;;;;;4.03;1.40;;;;;;;;;;5005650;28;20041;-85
2022/08/21 08:00:11;;;;;;;5.55;1.50;;;;;;;;;;5024329;28;20040;-83
2022/08/21 08:02:37;;;;;;;4.18;1.30;;;;;;;;;;5007750;28;20044;-83
2022/08/21 08:05:09;;;;;;;6.78;1.10;;;;;;;;;;4985483;28;20460;-85
2022/08/21 08:07:34;;;;;;;4.90;1.35;;;;;;;;;;5015093;28;20030;-84
2022/08/21 08:10:00;;;;;;;4.53;1.50;;;;;;;;;;5004718;28;20029;-84
2022/08/21 08:12:29;;;;;;;5.70;1.52;;;;;;;;;;5006383;28;20033;-84
2022/08/21 08:14:57;;;;;;;2.72;1.23;;;;;;;;;;5008392;28;20132;-84
2022/08/21 08:17:23;;;;;;;10.73;1.40;;;;;;;;;;5027535;28;20119;-85
2022/08/21 08:19:49;;;;;;;6.70;1.20;;;;;;;;;;5026181;28;20502;-84
2022/08/21 08:22:18;;;;;;;3.65;1.35;;;;;;;;;;5025325;28;20064;-85
2022/08/21 08:24:44;;;;;;;5.28;1.70;;;;;;;;;;5022214;28;20048;-84
2022/08/21 08:27:10;;;;;;;7.80;1.83;;;;;;;;;;5019558;28;20531;-84
2022/08/21 08:29:35;;;;;;;5.68;1.50;;;;;;;;;;5027810;28;20064;-83
2022/08/21 08:32:01;;;;;;;6.70;1.95;;;;;;;;;;5045211;28;20088;-85
2022/08/21 08:34:26;;;;;;;4.22;1.23;;;;;;;;;;5040797;28;20029;-83
2022/08/21 08:36:52;;;;;;;8.95;1.50;;;;;;;;;;5036172;28;20053;-84
2022/08/21 08:39:17;;;;;;;8.07;1.60;;;;;;;;;;5022532;28;20040;-86
2022/08/21 08:41:46;;;;;;;5.68;1.20;;;;;;;;;;5013935;28;20028;-86
2022/08/21 08:44:12;;;;;;;4.28;1.27;;;;;;;;;;5011547;28;20042;-86
2022/08/21 08:46:40;;;;;;;3.88;1.52;;;;;;;;;;5023582;28;20021;-88
2022/08/21 08:49:18;;;;;;;3.17;1.30;;;;;;;;;;5031940;28;20041;-89
2022/08/21 08:51:51;;;;;;;3.50;1.10;;;;;;;;;;5014466;28;20033;-88
2022/08/21 08:54:39;;;;;;;7.00;1.33;;;;;;;;;;5013795;28;20048;-86
2022/08/21 08:57:10;;;;;;;5.05;1.25;;;;;;;;;;5018535;28;20064;-87
2022/08/21 08:59:42;;;;;;;5.50;1.60;;;;;;;;;;5010466;28;20682;-87
2022/08/21 09:02:12;;;;;;;3.45;1.48;;;;;;;;;;5015456;28;20033;-88
2022/08/21 09:04:37;;;;;;;3.88;1.60;;;;;;;;;;5014029;28;20112;-87
2022/08/21 09:07:05;;;;;;;4.90;1.50;;;;;;;;;;5035208;28;20116;-88
2022/08/21 09:09:41;;;;;;;3.72;1.35;;;;;;;;;;5013939;28;20033;-90
2022/08/21 09:12:39;;;;;;;6.75;1.60;;;;;;;;;;5015959;28;20034;-90
2022/08/21 09:15:29;;;;;;;3.55;1.20;;;;;;;;;;5032527;28;20537;-88
2022/08/21 09:18:28;;;;;;;5.30;1.63;;;;;;;;;;5026807;28;20033;-89
2022/08/21 09:21:09;;;;;;;5.40;1.25;;;;;;;;;;5024573;28;20029;-89
2022/08/21 09:23:41;;;;;;;4.00;1.20;;;;;;;;;;5015615;28;20036;-89
2022/08/21 09:26:19;;;;;;;3.72;1.27;;;;;;;;;;5015292;28;20037;-89
2022/08/21 09:28:50;;;;;;;4.68;1.33;;;;;;;;;;5018297;28;20021;-88
2022/08/21 09:31:23;;;;;;;2.85;1.30;;;;;;;;;;5016205;28;20478;-89
2022/08/21 09:33:48;;;;;;;6.03;1.25;;;;;;;;;;5031933;28;20063;-90
2022/08/21 09:36:25;;;;;;;4.22;1.42;;;;;;;;;;5035553;28;20120;-86
2022/08/21 09:38:55;;;;;;;5.47;1.45;;;;;;;;;;5008638;28;20042;-87
2022/08/21 09:41:28;;;;;;;3.85;1.20;;;;;;;;;;5009556;28;20037;-87
2022/08/21 09:43:54;;;;;;;3.90;1.27;;;;;;;;;;5017745;28;20022;-87
2022/08/21 09:46:28;;;;;;;5.15;1.25;;;;;;;;;;5035474;28;20037;-84
2022/08/21 09:48:57;;;;;;;4.25;1.20;;;;;;;;;;5008023;28;20042;-89
2022/08/21 09:51:31;;;;;;;5.10;1.20;;;;;;;;;;5002774;28;20457;-88
2022/08/21 09:54:06;;;;;;;5.78;1.75;;;;;;;;;;5014884;28;20033;-87
2022/08/21 09:59:45;;;;;;;6.13;1.40;;;;;;;;;;5023179;28;20047;-88
2022/08/21 10:02:22;;;;;;;2.45;1.38;;;;;;;;;;5015017;28;20041;-88
2022/08/21 10:04:56;;;;;;;4.18;1.35;;;;;;;;;;5011890;28;20029;-89
2022/08/21 10:07:25;;;;;;;4.65;1.63;;;;;;;;;;5008314;28;20052;-87
2022/08/21 10:10:04;;;;;;;2.45;1.17;;;;;;;;;;5009125;28;20041;-86
2022/08/21 10:13:07;;;;;;;6.30;1.50;;;;;;;;;;5006229;28;20111;-85
2022/08/21 10:16:07;;;;;;;5.75;1.40;;;;;;;;;;4962681;28;20111;-84
2022/08/21 10:18:42;;;;;;;7.03;1.30;;;;;;;;;;5023352;28;20049;-87
2022/08/21 10:21:25;;;;;;;3.55;1.55;;;;;;;;;;5002153;28;20029;-86
2022/08/21 10:24:14;;;;;;;7.88;1.40;;;;;;;;;;5003674;28;20048;-86
2022/08/21 10:27:02;;;;;;;3.33;1.77;;;;;;;;;;5003299;28;20570;-86
2022/08/21 10:29:39;;;;;;;4.28;1.50;;;;;;;;;;5014591;28;20580;-87
2022/08/21 10:32:08;;;;;;;5.82;1.35;;;;;;;;;;5029696;28;20045;-88
2022/08/21 10:34:49;;;;;;;4.95;1.60;;;;;;;;;;5011351;28;20029;-88
2022/08/21 10:37:15;;;;;;;5.47;1.30;;;;;;;;;;5008344;28;20119;-88
2022/08/21 10:39:58;;;;;;;4.30;1.30;;;;;;;;;;5002116;28;20468;-91
2022/08/21 10:42:42;;;;;;;;;;;;;;;;;;5024990;28;20071;-90
2022/08/21 10:45:11;;;;;;;2.88;1.10;;;;;;;;;;5032496;28;19904;-89
2022/08/21 10:47:54;;;;;;;5.10;1.60;;;;;;;;;;5024829;28;20049;-90
2022/08/21 10:50:57;;;;;;;6.15;1.30;;;;;;;;;;5012296;28;20503;-90
2022/08/21 10:53:25;;;;;;;10.55;1.80;;;;;;;;;;4985394;28;20041;-87
2022/08/21 10:56:15;;;;;;;4.72;1.20;;;;;;;;;;5001695;28;20044;-88
2022/08/21 10:58:49;;;;;;;2.80;1.10;;;;;;;;;;5003426;28;20083;-89
2022/08/21 11:01:56;;;;;;;8.07;1.48;;;;;;;;;;5010874;28;20038;-90
2022/08/21 11:04:26;;;;;;;5.72;1.30;;;;;;;;;;4963760;28;20049;-86
2022/08/21 11:07:14;;;;;;;2.58;1.15;;;;;;;;;;5006122;28;20033;-88
2022/08/21 11:09:43;;;;;;;4.50;1.23;;;;;;;;;;4998654;28;20035;-89
2022/08/21 11:12:45;;;;;;;4.30;1.70;;;;;;;;;;5026657;28;20125;-89
2022/08/21 11:15:34;;;;;;;5.07;1.73;;;;;;;;;;5005098;28;20511;-88
2022/08/21 11:18:27;;;;;;;9.25;1.77;;;;;;;;;;5007595;28;20127;-88
2022/08/21 11:21:31;;;;;;;6.50;1.70;;;;;;;;;;5008256;28;20041;-86
2022/08/21 11:24:12;;;;;;;3.10;1.50;;;;;;;;;;5009562;28;20034;-88
2022/08/21 11:26:47;;;;;;;6.22;1.52;;;;;;;;;;5010603;28;20091;-89
2022/08/21 11:29:28;;;;;;;7.30;1.40;;;;;;;;;;5009140;28;20060;-89
2022/08/21 11:31:56;;;;;;;8.23;1.80;;;;;;;;;;5003641;28;20037;-91
2022/08/21 11:34:38;;;;;;;4.55;1.48;;;;;;;;;;5006437;28;20036;-89
2022/08/21 11:37:29;;;;;;;3.00;1.08;;;;;;;;;;5005550;28;20045;-89
2022/08/21 11:40:18;;;;;;;3.55;1.45;;;;;;;;;;5006428;28;20061;-88
2022/08/21 11:42:52;;;;;;;5.22;1.65;;;;;;;;;;4986098;28;20092;-87
2022/08/21 11:45:39;;;;;;;9.60;1.80;;;;;;;;;;5004099;28;20171;-87
2022/08/21 11:48:13;;;;;;;4.65;1.90;;;;;;;;;;5005646;28;20030;-86
2022/08/21 11:50:42;;;;;;;5.20;2.10;;;;;;;;;;5002448;28;20033;-88
2022/08/21 11:53:11;;;;;;;4.38;1.42;;;;;;;;;;5012072;28;20156;-88
2022/08/21 11:55:54;;;;;;;7.82;1.90;;;;;;;;;;5010341;28;20117;-88
2022/08/21 11:58:25;;;;;;;5.28;1.40;;;;;;;;;;5006899;28;20040;-88
2022/08/21 12:01:20;;;;;;;5.75;1.38;;;;;;;;;;5001356;28;20037;-90
2022/08/21 12:04:09;;;;;;;3.38;1.30;;;;;;;;;;4930887;28;1211446;-94
2022/08/21 12:06:40;;;;;;;7.70;1.83;;;;;;;;;;5007434;28;20124;-92
2022/08/21 12:09:24;;;;;;;4.18;1.30;;;;;;;;;;5021637;28;20030;-92
2022/08/21 12:12:12;;;;;;;4.30;1.70;;;;;;;;;;5006604;28;20156;-92
2022/08/21 12:14:47;;;;;;;4.95;1.40;;;;;;;;;;5008012;28;20057;-92
2022/08/21 12:17:34;;;;;;;7.82;3.67;;;;;;;;;;5008248;28;20041;-92
2022/08/21 12:20:14;;;;;;;6.28;1.73;;;;;;;;;;5003709;28;20123;-93
2022/08/21 12:22:40;;;;;;;3.65;1.30;;;;;;;;;;5008776;28;20021;-93
2022/08/21 12:25:11;;;;;;;5.30;1.88;;;;;;;;;;5006708;28;20549;-92
2022/08/21 12:27:47;;;;;;;6.38;1.58;;;;;;;;;;5011427;28;20041;-90
2022/08/21 12:30:28;;;;;;;3.63;1.70;;;;;;;;;;5011933;28;20042;-90
2022/08/21 12:33:19;;;;;;;5.60;1.40;;;;;;;;;;5002381;28;20037;-88
2022/08/21 12:35:45;;;;;;;3.85;1.40;;;;;;;;;;5006196;28;20056;-87
2022/08/21 12:38:28;;;;;;;5.70;1.50;;;;;;;;;;5006047;28;20037;-88
2022/08/21 12:41:06;;;;;;;5.05;1.52;;;;;;;;;;5017507;28;20076;-90
2022/08/21 12:43:39;;;;;;;4.22;1.52;;;;;;;;;;5023146;28;21098;-89
2022/08/21 12:46:05;;;;;;;5.25;1.77;;;;;;;;;;5014520;28;20033;-89
2022/08/21 12:48:56;;;;;;;4.75;1.35;;;;;;;;;;5002885;28;20132;-87
2022/08/21 12:51:30;;;;;;;5.05;1.45;;;;;;;;;;5001837;28;20041;-88
2022/08/21 12:53:58;;;;;;;4.10;1.50;;;;;;;;;;5004727;28;20033;-85
2022/08/21 12:56:28;;;;;;;6.88;1.45;;;;;;;;;;5005858;28;20056;-87
2022/08/21 12:59:03;;;;;;;6.60;1.58;;;;;;;;;;5020564;28;20021;-87
2022/08/21 13:01:33;;;;;;;6.15;1.70;;;;;;;;;;5007327;28;20044;-87
2022/08/21 13:04:10;;;;;;;6.15;1.85;;;;;;;;;;5009939;28;20042;-88
2022/08/21 13:06:47;;;;;;;5.68;1.85;;;;;;;;;;5014536;28;20083;-90
2022/08/21 13:09:15;;;;;;;7.72;1.50;;;;;;;;;;5006367;28;20043;-87
2022/08/21 13:11:43;;;;;;;7.60;1.50;;;;;;;;;;5008749;28;20060;-87
2022/08/21 13:14:39;;;;;;;5.93;1.70;;;;;;;;;;5006802;28;20037;-90
2022/08/21 13:17:06;;;;;;;4.50;1.50;;;;;;;;;;5007996;28;20061;-91
2022/08/21 13:19:32;;;;;;;6.05;1.75;;;;;;;;;;5002943;28;20646;-89
2022/08/21 13:21:58;;;;;;;3.85;1.17;;;;;;;;;;5012772;28;20052;-92
2022/08/21 13:24:34;;;;;;;3.88;1.40;;;;;;;;;;5006906;28;20502;-89
2022/08/21 13:27:01;;;;;;;8.27;1.85;;;;;;;;;;5010481;28;20037;-89
2022/08/21 13:29:34;;;;;;;6.15;1.65;;;;;;;;;;5009806;28;20041;-89
2022/08/21 13:32:01;;;;;;;;;;;;;;;;;;5006971;28;20079;-92
2022/08/21 13:34:34;;;;;;;4.93;1.45;;;;;;;;;;5019460;28;19909;-92
2022/08/21 13:37:03;;;;;;;3.70;1.40;;;;;;;;;;5006240;28;20057;-87
2022/08/21 13:39:29;;;;;;;7.88;1.85;;;;;;;;;;5003155;28;20045;-90
2022/08/21 13:41:57;;;;;;;5.13;1.60;;;;;;;;;;5005153;28;20046;-89
2022/08/21 13:44:31;;;;;;;4.30;1.50;;;;;;;;;;5003153;28;20084;-89
2022/08/21 13:47:00;;;;;;;4.82;1.98;;;;;;;;;;5028834;28;20030;-87
2022/08/21 13:49:35;;;;;;;4.68;1.98;;;;;;;;;;5029000;28;20569;-90
2022/08/21 13:52:01;;;;;;;4.63;1.40;;;;;;;;;;5014552;28;20041;-88
2022/08/21 13:54:33;;;;;;;4.38;1.45;;;;;;;;;;5013924;28;20036;-92
2022/08/21 13:56:59;;;;;;;4.82;1.40;;;;;;;;;;5010594;28;20422;-89
2022/08/21 13:59:34;;;;;;;5.40;1.40;;;;;;;;;;5006181;28;20105;-90
2022/08/21 14:02:21;;;;;;;5.45;1.73;;;;;;;;;;5004378;28;20148;-89
2022/08/21 14:04:52;;;;;;;3.58;1.50;;;;;;;;;;5008775;28;20232;-88
2022/08/21 14:07:23;;;;;;;4.47;1.50;;;;;;;;;;5001654;28;20501;-86
2022/08/21 14:09:49;;;;;;;6.20;1.95;;;;;;;;;;5003920;28;20041;-87
2022/08/21 14:12:32;;;;;;;5.15;1.42;;;;;;;;;;5014080;28;20037;-86
2022/08/21 14:15:01;;;;;;;5.03;1.55;;;;;;;;;;4998109;28;20640;-88
2022/08/21 14:17:39;;;;;;;4.00;1.52;;;;;;;;;;5006414;28;20047;-87
2022/08/21 14:20:10;;;;;;;5.15;1.63;;;;;;;;;;5019006;28;20106;-88
2022/08/21 14:22:44;;;;;;;7.65;1.50;;;;;;;;;;5004635;28;20029;-87
2022/08/21 14:25:27;;;;;;;;;;;;;;;;;;5013900;28;20048;-86
2022/08/21 14:28:05;;;;;;;5.05;1.60;;;;;;;;;;5017729;28;19921;-87
2022/08/21 14:30:35;;;;;;;10.70;2.30;;;;;;;;;;5018436;28;20033;-86
2022/08/21 14:33:02;;;;;;;5.00;2.03;;;;;;;;;;5007417;28;20053;-85
2022/08/21 14:35:27;;;;;;;6.82;1.50;;;;;;;;;;5006599;28;20095;-85
2022/08/21 14:37:53;;;;;;;7.07;1.73;;;;;;;;;;5017504;28;20041;-85
2022/08/21 14:40:21;;;;;;;5.32;1.40;;;;;;;;;;5013177;28;20025;-85
2022/08/21 14:42:46;;;;;;;6.88;1.92;;;;;;;;;;5023249;28;20135;-84
2022/08/21 14:45:22;;;;;;;6.80;1.48;;;;;;;;;;5002127;28;20045;-84
2022/08/21 14:47:48;;;;;;;5.10;1.70;;;;;;;;;;4998252;28;20057;-84
2022/08/21 14:50:13;;;;;;;7.47;1.50;;;;;;;;;;5024682;28;20128;-85
2022/08/21 14:52:40;;;;;;;4.22;1.50;;;;;;;;;;5026783;28;20075;-85
2022/08/21 14:55:10;;;;;;;6.25;1.70;;;;;;;;;;5023617;28;20041;-85
2022/08/21 14:57:36;;;;;;;5.53;1.55;;;;;;;;;;4996747;28;20037;-85
2022/08/21 15:00:03;;;;;;;4.40;1.35;;;;;;;;;;5000667;28;20649;-84
2022/08/21 15:02:28;;;;;;;5.32;1.45;;;;;;;;;;5009532;28;20049;-85
2022/08/21 15:04:53;;;;;;;3.25;1.40;;;;;;;;;;5015910;28;20573;-85
2022/08/21 15:07:19;;;;;;;5.22;1.63;;;;;;;;;;5029515;28;20027;-84
2022/08/21 15:09:44;;;;;;;4.18;1.40;;;;;;;;;;5056002;28;20054;-84
2022/08/21 15:12:12;;;;;;;4.03;1.58;;;;;;;;;;5013003;28;20080;-84
2022/08/21 15:14:39;;;;;;;4.70;1.42;;;;;;;;;;5017638;28;20036;-85
2022/08/21 15:17:06;;;;;;;3.05;1.42;;;;;;;;;;5007163;28;20188;-84
2022/08/21 15:19:31;;;;;;;6.35;1.88;;;;;;;;;;5021810;28;20052;-84
2022/08/21 15:21:58;;;;;;;3.33;1.70;;;;;;;;;;5017980;28;20636;-85
2022/08/21 15:24:23;;;;;;;4.38;1.50;;;;;;;;;;5021456;28;20189;-85
2022/08/21 15:26:49;;;;;;;7.25;1.90;;;;;;;;;;5002387;28;20124;-84
2022/08/21 15:29:15;;;;;;;5.60;1.70;;;;;;;;;;5025840;28;20483;-84
2022/08/21 15:31:52;;;;;;;7.07;1.60;;;;;;;;;;5026189;28;20048;-84
2022/08/21 15:34:17;;;;;;;6.85;1.65;;;;;;;;;;5004925;28;20064;-84
2022/08/21 15:36:42;;;;;;;6.95;1.60;;;;;;;;;;5004595;28;20522;-84
2022/08/21 15:39:08;;;;;;;5.13;1.70;;;;;;;;;;4998143;28;20037;-84
2022/08/21 15:41:33;;;;;;;4.97;1.50;;;;;;;;;;5017878;28;20037;-84
2022/08/21 15:43:59;;;;;;;3.28;1.45;;;;;;;;;;5005411;28;20073;-85
2022/08/21 15:46:24;;;;;;;4.50;1.30;;;;;;;;;;4997888;28;20048;-85
2022/08/21 15:48:49;;;;;;;8.15;1.90;;;;;;;;;;5001391;28;20124;-85
2022/08/21 15:51:15;;;;;;;5.22;1.60;;;;;;;;;;5003280;28;20045;-85
2022/08/21 15:53:41;;;;;;;4.43;1.90;;;;;;;;;;5003124;28;20033;-86
2022/08/21 15:56:22;;;;;;;5.25;1.80;;;;;;;;;;5009009;28;20042;-87
2022/08/21 15:58:49;;;;;;;4.72;1.58;;;;;;;;;;5014790;28;20061;-88
2022/08/21 16:01:15;;;;;;;3.78;1.48;;;;;;;;;;5005694;28;20060;-88
2022/08/21 16:03:42;;;;;;;3.58;1.40;;;;;;;;;;5003471;28;20448;-87
2022/08/21 16:06:07;;;;;;;4.68;1.40;;;;;;;;;;5012513;28;20123;-87
2022/08/21 16:08:32;;;;;;;4.20;1.63;;;;;;;;;;4998015;28;20061;-87
2022/08/21 16:11:00;;;;;;;4.90;1.70;;;;;;;;;;4998596;28;20045;-86
2022/08/21 16:13:36;;;;;;;2.95;1.52;;;;;;;;;;5008264;28;20064;-88
2022/08/21 16:16:01;;;;;;;3.20;1.70;;;;;;;;;;4985710;28;20069;-82
2022/08/21 16:18:27;;;;;;;5.95;1.55;;;;;;;;;;4998373;28;20142;-82
2022/08/21 16:20:53;;;;;;;3.58;1.27;;;;;;;;;;5011725;28;20025;-82
2022/08/21 16:23:18;;;;;;;5.13;1.50;;;;;;;;;;5020412;28;20025;-81
2022/08/21 16:25:44;;;;;;;6.60;1.55;;;;;;;;;;5000935;28;20037;-82
2022/08/21 16:28:13;;;;;;;3.40;1.40;;;;;;;;;;4987013;28;20053;-83
2022/08/21 16:30:39;;;;;;;5.20;1.75;;;;;;;;;;5020052;28;20059;-83
2022/08/21 16:33:05;;;;;;;6.10;1.50;;;;;;;;;;5022174;28;20845;-83
2022/08/21 16:35:31;;;;;;;5.85;1.60;;;;;;;;;;5009609;28;20060;-83
2022/08/21 16:37:57;;;;;;;5.13;1.70;;;;;;;;;;5030217;28;20046;-83
2022/08/21 16:40:22;;;;;;;4.13;1.27;;;;;;;;;;5025845;28;20037;-83
2022/08/21 16:42:48;;;;;;;4.68;1.60;;;;;;;;;;5021818;28;20064;-82
2022/08/21 16:45:18;;;;;;;5.95;1.80;;;;;;;;;;5009966;28;20121;-85
2022/08/21 16:47:44;;;;;;;4.03;1.52;;;;;;;;;;5012571;28;20088;-83
2022/08/21 16:50:14;;;;;;;6.28;1.80;;;;;;;;;;5022745;28;20722;-83
2022/08/21 16:52:42;;;;;;;5.25;1.95;;;;;;;;;;5022293;28;20049;-83
2022/08/21 16:55:08;;;;;;;9.27;2.13;;;;;;;;;;5013448;28;20053;-83
2022/08/21 16:57:34;;;;;;;3.85;1.73;;;;;;;;;;5004170;28;20388;-83
2022/08/21 17:00:01;;;;;;;6.85;2.17;;;;;;;;;;5030018;28;20616;-82
2022/08/21 17:02:34;;;;;;;5.00;2.08;;;;;;;;;;5016519;28;20053;-82
2022/08/21 17:05:01;;;;;;;4.97;1.58;;;;;;;;;;5012176;28;20132;-82
2022/08/21 17:07:26;;;;;;;4.28;2.03;;;;;;;;;;5029973;28;20038;-84
2022/08/21 17:09:52;;;;;;;3.30;1.52;;;;;;;;;;5028078;28;20107;-86
2022/08/21 17:12:17;;;;;;;6.65;1.65;;;;;;;;;;5030954;28;20105;-84
2022/08/21 17:14:43;;;;;;;4.50;1.80;;;;;;;;;;5026233;28;20021;-84
2022/08/21 17:17:10;;;;;;;5.60;1.60;;;;;;;;;;5005413;28;20021;-85
2022/08/21 17:19:35;;;;;;;6.30;2.15;;;;;;;;;;5021409;28;20029;-85
2022/08/21 17:22:02;;;;;;;5.40;1.80;;;;;;;;;;5013903;28;20136;-83
2022/08/21 17:24:28;;;;;;;2.72;1.60;;;;;;;;;;5004940;28;20530;-84
2022/08/21 17:26:55;;;;;;;7.72;1.80;;;;;;;;;;5006665;28;20228;-86
2022/08/21 17:29:26;;;;;;;4.20;1.70;;;;;;;;;;5017758;28;20033;-86
2022/08/21 17:31:52;;;;;;;5.47;1.70;;;;;;;;;;5012873;28;20037;-86
2022/08/21 17:34:18;;;;;;;4.57;1.70;;;;;;;;;;5021603;28;20096;-86
2022/08/21 17:36:43;;;;;;;2.53;1.40;;;;;;;;;;5020885;28;20061;-86
2022/08/21 17:39:09;;;;;;;6.63;1.63;;;;;;;;;;5012027;28;20053;-85
2022/08/21 17:41:35;;;;;;;6.28;1.77;;;;;;;;;;5030069;28;20021;-86
2022/08/21 17:44:05;;;;;;;7.00;1.95;;;;;;;;;;5029262;28;20033;-85